sensor_id;sensor_type;location;lat;lon;timestamp;P1;durP1;ratioP1;P2;durP2;ratioP2
32734;SDS011;19112;51.076;3.706;2023-02-11T00:02:01;27.30;;;7.53;;
32734;SDS011;19112;51.076;3.706;2023-02-11T00:04:29;42.45;;;8.90;;
32734;SDS011;19112;51.076;3.706;2023-02-11T00:06:55;21.85;;;7.75;;
32734;SDS011;19112;51.076;3.706;2023-02-11T00:09:22;29.40;;;7.05;;
32734;SDS011;19112;51.076;3.706;2023-02-11T00:11:47;25.58;;;7.45;;
32734;SDS011;19112;51.076;3.706;2023-02-11T00:14:13;27.25;;;6.55;;
32734;SDS011;19112;51.076;3.706;2023-02-11T00:16:39;17.40;;;6.00;;
32734;SDS011;19112;51.076;3.706;2023-02-11T00:19:05;24.15;;;6.20;;
32734;SDS011;19112;51.076;3.706;2023-02-11T00:21:31;24.35;;;6.65;;
32734;SDS011;19112;51.076;3.706;2023-02-11T00:23:59;23.00;;;6.80;;
32734;SDS011;19112;51.076;3.706;2023-02-11T00:26:30;22.25;;;6.50;;
32734;SDS011;19112;51.076;3.706;2023-02-11T00:31:25;23.27;;;6.60;;
32734;SDS011;19112;51.076;3.706;2023-02-11T00:33:52;24.95;;;6.72;;
32734;SDS011;19112;51.076;3.706;2023-02-11T00:36:22;22.20;;;6.40;;
32734;SDS011;19112;51.076;3.706;2023-02-11T00:38:51;28.85;;;7.18;;
32734;SDS011;19112;51.076;3.706;2023-02-11T00:41:18;23.67;;;6.75;;
32734;SDS011;19112;51.076;3.706;2023-02-11T00:43:45;20.23;;;6.20;;
32734;SDS011;19112;51.076;3.706;2023-02-11T00:46:12;23.85;;;7.57;;
32734;SDS011;19112;51.076;3.706;2023-02-11T00:48:38;26.83;;;7.25;;
32734;SDS011;19112;51.076;3.706;2023-02-11T00:51:05;19.05;;;6.53;;
32734;SDS011;19112;51.076;3.706;2023-02-11T00:53:31;26.38;;;7.57;;
32734;SDS011;19112;51.076;3.706;2023-02-11T00:55:58;31.48;;;7.60;;
32734;SDS011;19112;51.076;3.706;2023-02-11T00:58:25;23.95;;;6.57;;
32734;SDS011;19112;51.076;3.706;2023-02-11T01:00:53;25.45;;;7.30;;
32734;SDS011;19112;51.076;3.706;2023-02-11T01:03:19;27.48;;;7.78;;
32734;SDS011;19112;51.076;3.706;2023-02-11T01:05:45;20.40;;;6.57;;
32734;SDS011;19112;51.076;3.706;2023-02-11T01:08:11;26.80;;;7.75;;
32734;SDS011;19112;51.076;3.706;2023-02-11T01:10:37;24.83;;;7.50;;
32734;SDS011;19112;51.076;3.706;2023-02-11T01:13:03;23.75;;;7.47;;
32734;SDS011;19112;51.076;3.706;2023-02-11T01:15:30;28.88;;;7.90;;
32734;SDS011;19112;51.076;3.706;2023-02-11T01:17:57;23.77;;;6.93;;
32734;SDS011;19112;51.076;3.706;2023-02-11T01:20:24;25.40;;;7.32;;
32734;SDS011;19112;51.076;3.706;2023-02-11T01:22:51;24.90;;;7.70;;
32734;SDS011;19112;51.076;3.706;2023-02-11T01:25:17;23.25;;;7.75;;
32734;SDS011;19112;51.076;3.706;2023-02-11T01:27:43;24.58;;;7.90;;
32734;SDS011;19112;51.076;3.706;2023-02-11T01:30:10;25.73;;;7.88;;
32734;SDS011;19112;51.076;3.706;2023-02-11T01:32:38;30.45;;;8.18;;
32734;SDS011;19112;51.076;3.706;2023-02-11T01:35:05;28.15;;;8.02;;
32734;SDS011;19112;51.076;3.706;2023-02-11T01:37:32;20.42;;;7.18;;
32734;SDS011;19112;51.076;3.706;2023-02-11T01:40:00;25.98;;;8.50;;
32734;SDS011;19112;51.076;3.706;2023-02-11T01:42:28;29.38;;;9.18;;
32734;SDS011;19112;51.076;3.706;2023-02-11T01:44:56;27.92;;;8.45;;
32734;SDS011;19112;51.076;3.706;2023-02-11T01:47:22;25.90;;;9.10;;
32734;SDS011;19112;51.076;3.706;2023-02-11T01:49:50;25.10;;;8.80;;
32734;SDS011;19112;51.076;3.706;2023-02-11T01:52:28;27.48;;;8.73;;
32734;SDS011;19112;51.076;3.706;2023-02-11T01:55:01;34.88;;;9.00;;
32734;SDS011;19112;51.076;3.706;2023-02-11T01:57:53;27.00;;;9.43;;
32734;SDS011;19112;51.076;3.706;2023-02-11T02:03:19;27.65;;;9.10;;
32734;SDS011;19112;51.076;3.706;2023-02-11T02:08:33;27.20;;;9.68;;
32734;SDS011;19112;51.076;3.706;2023-02-11T02:11:06;27.30;;;9.35;;
32734;SDS011;19112;51.076;3.706;2023-02-11T02:13:33;25.08;;;8.77;;
32734;SDS011;19112;51.076;3.706;2023-02-11T02:16:03;25.90;;;8.57;;
32734;SDS011;19112;51.076;3.706;2023-02-11T02:18:55;25.63;;;8.85;;
32734;SDS011;19112;51.076;3.706;2023-02-11T02:36:08;25.63;;;8.90;;
32734;SDS011;19112;51.076;3.706;2023-02-11T02:39:08;25.17;;;9.55;;
32734;SDS011;19112;51.076;3.706;2023-02-11T02:41:42;29.92;;;9.40;;
32734;SDS011;19112;51.076;3.706;2023-02-11T02:44:10;27.38;;;9.93;;
32734;SDS011;19112;51.076;3.706;2023-02-11T02:46:36;26.48;;;9.40;;
32734;SDS011;19112;51.076;3.706;2023-02-11T02:49:02;29.15;;;9.40;;
32734;SDS011;19112;51.076;3.706;2023-02-11T02:57:28;30.95;;;9.93;;
32734;SDS011;19112;51.076;3.706;2023-02-11T03:03:22;28.90;;;9.13;;
32734;SDS011;19112;51.076;3.706;2023-02-11T03:06:25;32.28;;;10.07;;
32734;SDS011;19112;51.076;3.706;2023-02-11T03:09:05;30.92;;;10.13;;
32734;SDS011;19112;51.076;3.706;2023-02-11T03:11:50;29.92;;;9.57;;
32734;SDS011;19112;51.076;3.706;2023-02-11T03:14:16;33.42;;;11.02;;
32734;SDS011;19112;51.076;3.706;2023-02-11T03:16:43;32.85;;;10.13;;
32734;SDS011;19112;51.076;3.706;2023-02-11T03:19:22;30.48;;;10.50;;
32734;SDS011;19112;51.076;3.706;2023-02-11T03:21:54;27.75;;;9.43;;
32734;SDS011;19112;51.076;3.706;2023-02-11T03:24:28;28.25;;;10.23;;
32734;SDS011;19112;51.076;3.706;2023-02-11T03:27:00;27.58;;;11.30;;
32734;SDS011;19112;51.076;3.706;2023-02-11T03:29:56;26.15;;;9.80;;
32734;SDS011;19112;51.076;3.706;2023-02-11T03:32:36;32.95;;;10.07;;
32734;SDS011;19112;51.076;3.706;2023-02-11T03:38:19;29.77;;;10.38;;
32734;SDS011;19112;51.076;3.706;2023-02-11T03:40:54;27.55;;;9.68;;
32734;SDS011;19112;51.076;3.706;2023-02-11T03:43:24;28.85;;;9.90;;
32734;SDS011;19112;51.076;3.706;2023-02-11T03:45:56;27.10;;;9.85;;
32734;SDS011;19112;51.076;3.706;2023-02-11T03:48:29;23.73;;;10.07;;
32734;SDS011;19112;51.076;3.706;2023-02-11T03:51:01;24.60;;;10.35;;
32734;SDS011;19112;51.076;3.706;2023-02-11T03:53:30;26.23;;;11.20;;
32734;SDS011;19112;51.076;3.706;2023-02-11T03:55:56;29.77;;;11.77;;
32734;SDS011;19112;51.076;3.706;2023-02-11T03:58:26;28.60;;;10.23;;
32734;SDS011;19112;51.076;3.706;2023-02-11T04:00:52;28.35;;;10.45;;
32734;SDS011;19112;51.076;3.706;2023-02-11T04:03:18;32.75;;;10.70;;
32734;SDS011;19112;51.076;3.706;2023-02-11T04:05:44;27.95;;;10.60;;
32734;SDS011;19112;51.076;3.706;2023-02-11T04:08:10;31.40;;;11.65;;
32734;SDS011;19112;51.076;3.706;2023-02-11T04:10:35;35.25;;;11.38;;
32734;SDS011;19112;51.076;3.706;2023-02-11T04:13:01;33.03;;;11.13;;
32734;SDS011;19112;51.076;3.706;2023-02-11T04:15:27;31.05;;;11.88;;
32734;SDS011;19112;51.076;3.706;2023-02-11T04:17:53;30.60;;;11.85;;
32734;SDS011;19112;51.076;3.706;2023-02-11T04:20:19;31.95;;;11.18;;
32734;SDS011;19112;51.076;3.706;2023-02-11T04:22:45;28.58;;;11.40;;
32734;SDS011;19112;51.076;3.706;2023-02-11T04:25:11;29.08;;;11.90;;
32734;SDS011;19112;51.076;3.706;2023-02-11T04:27:37;35.85;;;12.20;;
32734;SDS011;19112;51.076;3.706;2023-02-11T04:30:04;30.85;;;11.65;;
32734;SDS011;19112;51.076;3.706;2023-02-11T04:32:31;27.58;;;12.82;;
32734;SDS011;19112;51.076;3.706;2023-02-11T04:34:57;32.55;;;12.68;;
32734;SDS011;19112;51.076;3.706;2023-02-11T04:37:23;27.95;;;11.30;;
32734;SDS011;19112;51.076;3.706;2023-02-11T04:39:50;33.28;;;12.82;;
32734;SDS011;19112;51.076;3.706;2023-02-11T04:42:15;28.73;;;11.73;;
32734;SDS011;19112;51.076;3.706;2023-02-11T04:44:41;33.65;;;12.82;;
32734;SDS011;19112;51.076;3.706;2023-02-11T04:47:07;34.25;;;12.25;;
32734;SDS011;19112;51.076;3.706;2023-02-11T04:49:33;30.52;;;12.02;;
32734;SDS011;19112;51.076;3.706;2023-02-11T04:51:59;26.80;;;11.52;;
32734;SDS011;19112;51.076;3.706;2023-02-11T04:54:25;30.63;;;11.73;;
32734;SDS011;19112;51.076;3.706;2023-02-11T04:56:50;31.30;;;12.30;;
32734;SDS011;19112;51.076;3.706;2023-02-11T04:59:16;32.45;;;12.48;;
32734;SDS011;19112;51.076;3.706;2023-02-11T05:01:42;30.02;;;11.77;;
32734;SDS011;19112;51.076;3.706;2023-02-11T05:04:08;26.67;;;11.82;;
32734;SDS011;19112;51.076;3.706;2023-02-11T05:06:34;30.63;;;11.88;;
32734;SDS011;19112;51.076;3.706;2023-02-11T05:09:01;35.10;;;12.32;;
32734;SDS011;19112;51.076;3.706;2023-02-11T05:11:27;31.67;;;12.05;;
32734;SDS011;19112;51.076;3.706;2023-02-11T05:13:53;28.52;;;12.20;;
32734;SDS011;19112;51.076;3.706;2023-02-11T05:16:19;26.42;;;11.30;;
32734;SDS011;19112;51.076;3.706;2023-02-11T05:18:45;32.58;;;11.88;;
32734;SDS011;19112;51.076;3.706;2023-02-11T05:21:12;31.73;;;12.20;;
32734;SDS011;19112;51.076;3.706;2023-02-11T05:23:42;29.45;;;12.00;;
32734;SDS011;19112;51.076;3.706;2023-02-11T05:26:09;30.88;;;12.32;;
32734;SDS011;19112;51.076;3.706;2023-02-11T05:28:35;36.03;;;14.20;;
32734;SDS011;19112;51.076;3.706;2023-02-11T05:31:02;34.28;;;13.85;;
32734;SDS011;19112;51.076;3.706;2023-02-11T05:33:29;37.65;;;12.70;;
32734;SDS011;19112;51.076;3.706;2023-02-11T05:35:58;38.13;;;13.45;;
32734;SDS011;19112;51.076;3.706;2023-02-11T05:38:26;30.58;;;12.32;;
32734;SDS011;19112;51.076;3.706;2023-02-11T05:40:52;30.63;;;12.30;;
32734;SDS011;19112;51.076;3.706;2023-02-11T05:43:18;37.95;;;13.52;;
32734;SDS011;19112;51.076;3.706;2023-02-11T05:45:44;32.70;;;12.75;;
32734;SDS011;19112;51.076;3.706;2023-02-11T05:48:10;30.98;;;12.88;;
32734;SDS011;19112;51.076;3.706;2023-02-11T05:50:35;30.48;;;12.15;;
32734;SDS011;19112;51.076;3.706;2023-02-11T05:53:02;33.63;;;12.50;;
32734;SDS011;19112;51.076;3.706;2023-02-11T05:55:29;33.22;;;12.57;;
32734;SDS011;19112;51.076;3.706;2023-02-11T05:57:55;35.65;;;12.98;;
32734;SDS011;19112;51.076;3.706;2023-02-11T06:00:21;34.90;;;13.77;;
32734;SDS011;19112;51.076;3.706;2023-02-11T06:02:47;31.75;;;12.73;;
32734;SDS011;19112;51.076;3.706;2023-02-11T06:05:13;36.40;;;13.38;;
32734;SDS011;19112;51.076;3.706;2023-02-11T06:07:39;34.78;;;12.20;;
32734;SDS011;19112;51.076;3.706;2023-02-11T06:10:05;31.67;;;13.15;;
32734;SDS011;19112;51.076;3.706;2023-02-11T06:12:32;34.40;;;13.20;;
32734;SDS011;19112;51.076;3.706;2023-02-11T06:14:57;37.25;;;13.98;;
32734;SDS011;19112;51.076;3.706;2023-02-11T06:17:23;32.95;;;14.18;;
32734;SDS011;19112;51.076;3.706;2023-02-11T06:19:49;30.13;;;13.10;;
32734;SDS011;19112;51.076;3.706;2023-02-11T06:22:15;33.58;;;14.18;;
32734;SDS011;19112;51.076;3.706;2023-02-11T06:24:41;39.72;;;14.35;;
32734;SDS011;19112;51.076;3.706;2023-02-11T06:27:07;36.55;;;13.63;;
32734;SDS011;19112;51.076;3.706;2023-02-11T06:29:33;36.60;;;14.02;;
32734;SDS011;19112;51.076;3.706;2023-02-11T06:31:59;39.95;;;16.63;;
32734;SDS011;19112;51.076;3.706;2023-02-11T06:34:25;43.63;;;16.10;;
32734;SDS011;19112;51.076;3.706;2023-02-11T06:36:51;44.40;;;16.00;;
32734;SDS011;19112;51.076;3.706;2023-02-11T06:39:17;38.42;;;15.63;;
32734;SDS011;19112;51.076;3.706;2023-02-11T06:41:42;32.67;;;14.98;;
32734;SDS011;19112;51.076;3.706;2023-02-11T06:44:08;36.30;;;15.77;;
32734;SDS011;19112;51.076;3.706;2023-02-11T06:46:34;40.92;;;16.60;;
32734;SDS011;19112;51.076;3.706;2023-02-11T06:49:00;40.75;;;16.40;;
32734;SDS011;19112;51.076;3.706;2023-02-11T06:51:26;41.15;;;17.65;;
32734;SDS011;19112;51.076;3.706;2023-02-11T06:53:52;41.13;;;18.35;;
32734;SDS011;19112;51.076;3.706;2023-02-11T06:56:20;39.88;;;17.85;;
32734;SDS011;19112;51.076;3.706;2023-02-11T06:58:47;42.65;;;17.65;;
32734;SDS011;19112;51.076;3.706;2023-02-11T07:01:19;34.83;;;15.70;;
32734;SDS011;19112;51.076;3.706;2023-02-11T07:03:45;36.80;;;15.57;;
32734;SDS011;19112;51.076;3.706;2023-02-11T07:06:13;41.50;;;17.58;;
32734;SDS011;19112;51.076;3.706;2023-02-11T07:08:48;39.70;;;17.90;;
32734;SDS011;19112;51.076;3.706;2023-02-11T07:11:15;36.63;;;16.30;;
32734;SDS011;19112;51.076;3.706;2023-02-11T07:13:50;41.35;;;16.88;;
32734;SDS011;19112;51.076;3.706;2023-02-11T07:16:19;43.13;;;16.65;;
32734;SDS011;19112;51.076;3.706;2023-02-11T07:18:45;41.20;;;18.00;;
32734;SDS011;19112;51.076;3.706;2023-02-11T07:21:12;42.58;;;18.10;;
32734;SDS011;19112;51.076;3.706;2023-02-11T07:23:41;41.58;;;17.92;;
32734;SDS011;19112;51.076;3.706;2023-02-11T07:26:12;43.47;;;17.98;;
32734;SDS011;19112;51.076;3.706;2023-02-11T07:28:41;50.50;;;18.27;;
32734;SDS011;19112;51.076;3.706;2023-02-11T07:31:11;45.80;;;20.20;;
32734;SDS011;19112;51.076;3.706;2023-02-11T07:33:43;47.58;;;19.45;;
32734;SDS011;19112;51.076;3.706;2023-02-11T07:36:10;46.38;;;18.90;;
32734;SDS011;19112;51.076;3.706;2023-02-11T07:38:38;41.67;;;18.08;;
32734;SDS011;19112;51.076;3.706;2023-02-11T07:41:09;45.50;;;19.95;;
32734;SDS011;19112;51.076;3.706;2023-02-11T07:43:37;44.85;;;18.75;;
32734;SDS011;19112;51.076;3.706;2023-02-11T07:46:12;44.38;;;20.60;;
32734;SDS011;19112;51.076;3.706;2023-02-11T07:48:42;44.50;;;19.02;;
32734;SDS011;19112;51.076;3.706;2023-02-11T07:51:30;50.95;;;22.25;;
32734;SDS011;19112;51.076;3.706;2023-02-11T07:53:56;46.67;;;23.13;;
32734;SDS011;19112;51.076;3.706;2023-02-11T07:56:23;51.92;;;25.13;;
32734;SDS011;19112;51.076;3.706;2023-02-11T07:58:50;46.67;;;22.08;;
32734;SDS011;19112;51.076;3.706;2023-02-11T08:01:18;52.10;;;19.92;;
32734;SDS011;19112;51.076;3.706;2023-02-11T08:03:48;43.20;;;19.27;;
32734;SDS011;19112;51.076;3.706;2023-02-11T08:06:16;44.60;;;19.13;;
32734;SDS011;19112;51.076;3.706;2023-02-11T08:08:44;48.47;;;19.98;;
32734;SDS011;19112;51.076;3.706;2023-02-11T08:11:12;44.95;;;20.30;;
32734;SDS011;19112;51.076;3.706;2023-02-11T08:13:49;46.85;;;21.23;;
32734;SDS011;19112;51.076;3.706;2023-02-11T08:16:17;43.33;;;19.58;;
32734;SDS011;19112;51.076;3.706;2023-02-11T08:18:52;44.88;;;20.17;;
32734;SDS011;19112;51.076;3.706;2023-02-11T08:21:22;46.47;;;20.73;;
32734;SDS011;19112;51.076;3.706;2023-02-11T08:23:49;44.38;;;20.75;;
32734;SDS011;19112;51.076;3.706;2023-02-11T08:26:17;44.03;;;20.48;;
32734;SDS011;19112;51.076;3.706;2023-02-11T08:28:49;47.15;;;20.70;;
32734;SDS011;19112;51.076;3.706;2023-02-11T08:31:18;43.75;;;20.00;;
32734;SDS011;19112;51.076;3.706;2023-02-11T08:33:50;44.13;;;19.95;;
32734;SDS011;19112;51.076;3.706;2023-02-11T08:36:21;45.78;;;20.15;;
32734;SDS011;19112;51.076;3.706;2023-02-11T08:38:53;47.28;;;21.55;;
32734;SDS011;19112;51.076;3.706;2023-02-11T08:41:20;40.85;;;20.85;;
32734;SDS011;19112;51.076;3.706;2023-02-11T08:43:46;46.78;;;21.38;;
32734;SDS011;19112;51.076;3.706;2023-02-11T08:46:14;46.33;;;22.50;;
32734;SDS011;19112;51.076;3.706;2023-02-11T08:48:42;43.78;;;21.58;;
32734;SDS011;19112;51.076;3.706;2023-02-11T08:51:20;46.60;;;21.88;;
32734;SDS011;19112;51.076;3.706;2023-02-11T08:53:49;45.45;;;22.20;;
32734;SDS011;19112;51.076;3.706;2023-02-11T08:56:16;50.70;;;22.65;;
32734;SDS011;19112;51.076;3.706;2023-02-11T08:58:43;47.90;;;22.60;;
32734;SDS011;19112;51.076;3.706;2023-02-11T09:01:17;43.30;;;20.35;;
32734;SDS011;19112;51.076;3.706;2023-02-11T09:03:46;49.60;;;24.00;;
32734;SDS011;19112;51.076;3.706;2023-02-11T09:06:12;45.47;;;22.73;;
32734;SDS011;19112;51.076;3.706;2023-02-11T09:08:40;46.00;;;21.52;;
32734;SDS011;19112;51.076;3.706;2023-02-11T09:11:08;42.58;;;21.65;;
32734;SDS011;19112;51.076;3.706;2023-02-11T09:13:34;46.47;;;22.50;;
32734;SDS011;19112;51.076;3.706;2023-02-11T09:16:01;47.88;;;23.25;;
32734;SDS011;19112;51.076;3.706;2023-02-11T09:18:29;51.65;;;23.42;;
32734;SDS011;19112;51.076;3.706;2023-02-11T09:21:03;48.83;;;23.17;;
32734;SDS011;19112;51.076;3.706;2023-02-11T09:23:31;45.55;;;22.83;;
32734;SDS011;19112;51.076;3.706;2023-02-11T09:26:08;44.33;;;22.25;;
32734;SDS011;19112;51.076;3.706;2023-02-11T09:28:38;47.50;;;22.70;;
32734;SDS011;19112;51.076;3.706;2023-02-11T09:31:07;48.88;;;23.90;;
32734;SDS011;19112;51.076;3.706;2023-02-11T09:33:37;45.13;;;21.45;;
32734;SDS011;19112;51.076;3.706;2023-02-11T09:36:06;46.83;;;23.23;;
32734;SDS011;19112;51.076;3.706;2023-02-11T09:38:32;46.40;;;22.67;;
32734;SDS011;19112;51.076;3.706;2023-02-11T09:40:58;43.75;;;22.20;;
32734;SDS011;19112;51.076;3.706;2023-02-11T09:43:34;44.92;;;23.33;;
32734;SDS011;19112;51.076;3.706;2023-02-11T09:46:08;43.95;;;22.33;;
32734;SDS011;19112;51.076;3.706;2023-02-11T09:48:42;48.70;;;22.67;;
32734;SDS011;19112;51.076;3.706;2023-02-11T09:53:59;47.90;;;20.67;;
32734;SDS011;19112;51.076;3.706;2023-02-11T09:56:35;44.50;;;22.30;;
32734;SDS011;19112;51.076;3.706;2023-02-11T09:59:01;49.10;;;24.15;;
32734;SDS011;19112;51.076;3.706;2023-02-11T10:01:29;45.08;;;22.10;;
32734;SDS011;19112;51.076;3.706;2023-02-11T10:04:25;52.00;;;21.85;;
32734;SDS011;19112;51.076;3.706;2023-02-11T10:07:02;44.08;;;21.75;;
32734;SDS011;19112;51.076;3.706;2023-02-11T10:10:12;49.72;;;21.77;;
32734;SDS011;19112;51.076;3.706;2023-02-11T10:12:52;44.80;;;21.05;;
32734;SDS011;19112;51.076;3.706;2023-02-11T10:15:36;46.85;;;21.77;;
32734;SDS011;19112;51.076;3.706;2023-02-11T10:18:28;41.50;;;20.70;;
32734;SDS011;19112;51.076;3.706;2023-02-11T10:21:26;41.30;;;20.50;;
32734;SDS011;19112;51.076;3.706;2023-02-11T10:24:09;43.00;;;20.33;;
32734;SDS011;19112;51.076;3.706;2023-02-11T10:26:37;39.38;;;21.02;;
32734;SDS011;19112;51.076;3.706;2023-02-11T10:29:11;41.03;;;21.75;;
32734;SDS011;19112;51.076;3.706;2023-02-11T10:31:50;42.63;;;20.23;;
32734;SDS011;19112;51.076;3.706;2023-02-11T10:34:17;42.25;;;20.15;;
32734;SDS011;19112;51.076;3.706;2023-02-11T10:36:43;42.13;;;20.92;;
32734;SDS011;19112;51.076;3.706;2023-02-11T10:39:14;43.15;;;20.77;;
32734;SDS011;19112;51.076;3.706;2023-02-11T10:41:44;40.47;;;20.15;;
32734;SDS011;19112;51.076;3.706;2023-02-11T10:44:30;55.33;;;21.20;;
32734;SDS011;19112;51.076;3.706;2023-02-11T10:47:09;41.42;;;20.77;;
32734;SDS011;19112;51.076;3.706;2023-02-11T10:49:48;47.63;;;21.85;;
32734;SDS011;19112;51.076;3.706;2023-02-11T10:52:18;42.63;;;20.50;;
32734;SDS011;19112;51.076;3.706;2023-02-11T10:54:59;47.00;;;20.90;;
32734;SDS011;19112;51.076;3.706;2023-02-11T10:57:27;42.80;;;22.30;;
32734;SDS011;19112;51.076;3.706;2023-02-11T11:00:19;45.28;;;22.13;;
32734;SDS011;19112;51.076;3.706;2023-02-11T11:03:15;44.17;;;21.23;;
32734;SDS011;19112;51.076;3.706;2023-02-11T11:05:47;44.75;;;20.67;;
32734;SDS011;19112;51.076;3.706;2023-02-11T11:08:48;44.40;;;21.08;;
32734;SDS011;19112;51.076;3.706;2023-02-11T11:11:17;39.70;;;20.73;;
32734;SDS011;19112;51.076;3.706;2023-02-11T11:21:42;47.63;;;23.45;;
32734;SDS011;19112;51.076;3.706;2023-02-11T11:26:56;44.22;;;20.70;;
32734;SDS011;19112;51.076;3.706;2023-02-11T11:29:34;40.25;;;19.65;;
32734;SDS011;19112;51.076;3.706;2023-02-11T11:34:52;43.85;;;20.10;;
32734;SDS011;19112;51.076;3.706;2023-02-11T11:37:30;46.22;;;20.80;;
32734;SDS011;19112;51.076;3.706;2023-02-11T11:40:09;39.83;;;20.33;;
32734;SDS011;19112;51.076;3.706;2023-02-11T11:43:06;43.20;;;20.85;;
32734;SDS011;19112;51.076;3.706;2023-02-11T11:45:38;40.38;;;20.10;;
32734;SDS011;19112;51.076;3.706;2023-02-11T11:51:10;38.30;;;18.98;;
32734;SDS011;19112;51.076;3.706;2023-02-11T11:56:10;37.80;;;19.65;;
32734;SDS011;19112;51.076;3.706;2023-02-11T11:58:45;40.42;;;19.50;;
32734;SDS011;19112;51.076;3.706;2023-02-11T12:04:42;38.80;;;19.88;;
32734;SDS011;19112;51.076;3.706;2023-02-11T12:13:20;37.25;;;18.52;;
32734;SDS011;19112;51.076;3.706;2023-02-11T12:16:47;39.33;;;19.60;;
32734;SDS011;19112;51.076;3.706;2023-02-11T12:23:29;39.72;;;19.77;;
32734;SDS011;19112;51.076;3.706;2023-02-11T12:26:24;42.08;;;20.63;;
32734;SDS011;19112;51.076;3.706;2023-02-11T12:32:25;46.05;;;22.73;;
32734;SDS011;19112;51.076;3.706;2023-02-11T12:35:28;42.05;;;21.77;;
32734;SDS011;19112;51.076;3.706;2023-02-11T12:38:29;40.22;;;18.95;;
32734;SDS011;19112;51.076;3.706;2023-02-11T12:44:51;38.67;;;19.55;;
32734;SDS011;19112;51.076;3.706;2023-02-11T12:53:49;38.67;;;19.75;;
32734;SDS011;19112;51.076;3.706;2023-02-11T12:56:30;39.03;;;18.52;;
32734;SDS011;19112;51.076;3.706;2023-02-11T12:59:33;36.67;;;17.90;;
32734;SDS011;19112;51.076;3.706;2023-02-11T13:02:20;41.70;;;18.65;;
32734;SDS011;19112;51.076;3.706;2023-02-11T13:05:23;40.35;;;19.10;;
32734;SDS011;19112;51.076;3.706;2023-02-11T13:08:10;37.33;;;18.55;;
32734;SDS011;19112;51.076;3.706;2023-02-11T13:11:13;38.80;;;18.80;;
32734;SDS011;19112;51.076;3.706;2023-02-11T13:14:08;39.35;;;18.67;;
32734;SDS011;19112;51.076;3.706;2023-02-11T13:16:47;35.22;;;18.75;;
32734;SDS011;19112;51.076;3.706;2023-02-11T13:30:35;38.88;;;18.92;;
32734;SDS011;19112;51.076;3.706;2023-02-11T13:33:18;40.85;;;19.42;;
32734;SDS011;19112;51.076;3.706;2023-02-11T13:38:23;36.05;;;18.30;;
32734;SDS011;19112;51.076;3.706;2023-02-11T13:41:00;37.45;;;18.45;;
32734;SDS011;19112;51.076;3.706;2023-02-11T13:43:41;35.13;;;17.83;;
32734;SDS011;19112;51.076;3.706;2023-02-11T13:46:11;39.00;;;20.13;;
32734;SDS011;19112;51.076;3.706;2023-02-11T13:48:44;35.13;;;18.58;;
32734;SDS011;19112;51.076;3.706;2023-02-11T13:51:18;36.10;;;17.67;;
32734;SDS011;19112;51.076;3.706;2023-02-11T13:54:01;34.45;;;17.70;;
32734;SDS011;19112;51.076;3.706;2023-02-11T13:58:59;38.42;;;18.30;;
32734;SDS011;19112;51.076;3.706;2023-02-11T14:05:31;40.10;;;19.42;;
32734;SDS011;19112;51.076;3.706;2023-02-11T14:10:54;34.67;;;18.05;;
32734;SDS011;19112;51.076;3.706;2023-02-11T14:13:28;37.50;;;18.70;;
32734;SDS011;19112;51.076;3.706;2023-02-11T14:16:03;36.83;;;18.85;;
32734;SDS011;19112;51.076;3.706;2023-02-11T14:21:13;36.03;;;18.05;;
32734;SDS011;19112;51.076;3.706;2023-02-11T14:23:51;37.03;;;17.53;;
32734;SDS011;19112;51.076;3.706;2023-02-11T14:29:48;37.47;;;17.52;;
32734;SDS011;19112;51.076;3.706;2023-02-11T14:43:52;40.55;;;18.85;;
32734;SDS011;19112;51.076;3.706;2023-02-11T14:46:25;37.10;;;17.92;;
32734;SDS011;19112;51.076;3.706;2023-02-11T14:48:57;33.97;;;17.42;;
32734;SDS011;19112;51.076;3.706;2023-02-11T14:51:33;33.47;;;17.10;;
32734;SDS011;19112;51.076;3.706;2023-02-11T14:56:41;35.03;;;17.60;;
32734;SDS011;19112;51.076;3.706;2023-02-11T14:59:14;36.40;;;17.08;;
32734;SDS011;19112;51.076;3.706;2023-02-11T15:01:47;33.70;;;15.15;;
32734;SDS011;19112;51.076;3.706;2023-02-11T15:04:23;33.17;;;14.75;;
32734;SDS011;19112;51.076;3.706;2023-02-11T15:06:53;35.25;;;15.48;;
32734;SDS011;19112;51.076;3.706;2023-02-11T15:12:15;39.03;;;19.73;;
32734;SDS011;19112;51.076;3.706;2023-02-11T15:14:47;39.30;;;19.58;;
32734;SDS011;19112;51.076;3.706;2023-02-11T15:17:21;43.30;;;19.30;;
32734;SDS011;19112;51.076;3.706;2023-02-11T15:19:52;40.40;;;19.17;;
32734;SDS011;19112;51.076;3.706;2023-02-11T15:22:26;33.25;;;17.25;;
32734;SDS011;19112;51.076;3.706;2023-02-11T15:25:11;38.75;;;18.52;;
32734;SDS011;19112;51.076;3.706;2023-02-11T15:27:42;41.92;;;18.55;;
32734;SDS011;19112;51.076;3.706;2023-02-11T15:32:51;36.58;;;16.92;;
32734;SDS011;19112;51.076;3.706;2023-02-11T15:35:37;35.97;;;16.77;;
32734;SDS011;19112;51.076;3.706;2023-02-11T15:38:05;37.05;;;17.45;;
32734;SDS011;19112;51.076;3.706;2023-02-11T15:40:35;38.53;;;17.40;;
32734;SDS011;19112;51.076;3.706;2023-02-11T15:43:02;40.28;;;17.75;;
32734;SDS011;19112;51.076;3.706;2023-02-11T15:45:51;32.97;;;15.80;;
32734;SDS011;19112;51.076;3.706;2023-02-11T15:48:25;34.33;;;16.05;;
32734;SDS011;19112;51.076;3.706;2023-02-11T15:51:04;31.30;;;15.20;;
32734;SDS011;19112;51.076;3.706;2023-02-11T15:53:37;35.92;;;15.27;;
32734;SDS011;19112;51.076;3.706;2023-02-11T15:56:15;34.75;;;16.27;;
32734;SDS011;19112;51.076;3.706;2023-02-11T15:58:55;29.88;;;13.77;;
32734;SDS011;19112;51.076;3.706;2023-02-11T16:01:31;38.38;;;15.65;;
32734;SDS011;19112;51.076;3.706;2023-02-11T16:04:01;34.03;;;17.50;;
32734;SDS011;19112;51.076;3.706;2023-02-11T16:06:35;33.03;;;15.75;;
32734;SDS011;19112;51.076;3.706;2023-02-11T16:11:36;33.10;;;14.98;;
32734;SDS011;19112;51.076;3.706;2023-02-11T16:16:55;37.20;;;15.75;;
32734;SDS011;19112;51.076;3.706;2023-02-11T16:19:26;32.38;;;14.88;;
32734;SDS011;19112;51.076;3.706;2023-02-11T16:21:55;31.15;;;15.80;;
32734;SDS011;19112;51.076;3.706;2023-02-11T16:24:27;34.83;;;15.35;;
32734;SDS011;19112;51.076;3.706;2023-02-11T16:27:00;34.95;;;15.05;;
32734;SDS011;19112;51.076;3.706;2023-02-11T16:29:48;32.40;;;13.43;;
32734;SDS011;19112;51.076;3.706;2023-02-11T16:32:16;33.17;;;14.50;;
32734;SDS011;19112;51.076;3.706;2023-02-11T16:34:52;35.35;;;14.65;;
32734;SDS011;19112;51.076;3.706;2023-02-11T16:37:22;39.13;;;15.57;;
32734;SDS011;19112;51.076;3.706;2023-02-11T16:39:52;34.72;;;16.02;;
32734;SDS011;19112;51.076;3.706;2023-02-11T16:42:18;31.90;;;15.60;;
32734;SDS011;19112;51.076;3.706;2023-02-11T16:44:44;33.38;;;16.58;;
32734;SDS011;19112;51.076;3.706;2023-02-11T16:47:18;33.83;;;17.52;;
32734;SDS011;19112;51.076;3.706;2023-02-11T16:49:50;34.75;;;17.48;;
32734;SDS011;19112;51.076;3.706;2023-02-11T16:52:16;41.10;;;18.10;;
32734;SDS011;19112;51.076;3.706;2023-02-11T16:54:45;36.80;;;19.08;;
32734;SDS011;19112;51.076;3.706;2023-02-11T16:57:18;37.90;;;20.70;;
32734;SDS011;19112;51.076;3.706;2023-02-11T16:59:46;38.97;;;20.73;;
32734;SDS011;19112;51.076;3.706;2023-02-11T17:02:14;43.08;;;20.25;;
32734;SDS011;19112;51.076;3.706;2023-02-11T17:05:00;48.38;;;27.35;;
32734;SDS011;19112;51.076;3.706;2023-02-11T17:07:30;44.60;;;23.15;;
32734;SDS011;19112;51.076;3.706;2023-02-11T17:09:56;45.60;;;23.73;;